Time;durP1;ratioP1;P1;durP2;ratioP2;P2;SDS_P1;SDS_P2;PMS_P1;PMS_P2;Temp;Humidity;BMP_temperature;BMP_pressure;BME280_temperature;BME280_humidity;BME280_pressure;Samples;Min_cycle;Max_cycle;Signal;HPM_P1;HPM_P2
2023/11/26 00:01:00;;;;;;;13.00;5.90;;;7.40;85.20;;;;;;5079779;28;20164;-91
2023/11/26 00:03:26;;;;;;;11.87;5.23;;;7.50;84.10;;;;;;5077665;28;20235;-91
2023/11/26 00:05:51;;;;;;;14.57;4.90;;;7.40;82.40;;;;;;5081800;28;20682;-88
2023/11/26 00:08:17;;;;;;;11.63;5.60;;;7.50;83.80;;;;;;5082322;28;20239;-90
2023/11/26 00:10:43;;;;;;;15.20;5.30;;;7.30;83.70;;;;;;5086732;28;20168;-89
2023/11/26 00:13:09;;;;;;;13.37;5.43;;;7.30;88.30;;;;;;5086778;28;20621;-88
2023/11/26 00:15:35;;;;;;;12.90;5.53;;;7.40;90.30;;;;;;5083304;28;20180;-84
2023/11/26 00:18:00;;;;;;;14.00;6.03;;;7.50;90.30;;;;;;5081050;28;20164;-90
2023/11/26 00:20:27;;;;;;;14.50;5.77;;;7.40;88.80;;;;;;5086420;28;20559;-89
2023/11/26 00:22:53;;;;;;;14.70;6.07;;;7.40;88.50;;;;;;5088108;28;20180;-91
2023/11/26 00:25:18;;;;;;;12.70;6.27;;;7.50;90.00;;;;;;5087614;28;20267;-88
2023/11/26 00:27:44;;;;;;;16.13;6.57;;;7.40;88.90;;;;;;5089545;28;20168;-89
2023/11/26 00:30:10;;;;;;;14.13;5.60;;;7.50;88.00;;;;;;5089628;28;20168;-88
2023/11/26 00:32:36;;;;;;;14.37;6.63;;;7.50;88.80;;;;;;5090903;28;20237;-85
2023/11/26 00:35:03;;;;;;;11.17;5.50;;;7.50;85.60;;;;;;5089243;28;20191;-90
2023/11/26 00:37:29;;;;;;;14.17;6.00;;;7.50;87.80;;;;;;5091514;28;20165;-83
2023/11/26 00:39:56;;;;;;;12.47;5.50;;;7.50;84.40;;;;;;5093749;28;20229;-90
2023/11/26 00:42:47;;;;;;;11.10;5.73;;;7.40;83.90;;;;;;5081197;28;20169;-90
2023/11/26 00:45:13;;;;;;;11.23;5.10;;;7.30;85.70;;;;;;5077354;28;20176;-91
2023/11/26 00:47:41;;;;;;;10.43;5.57;;;7.40;88.30;;;;;;5076864;28;20175;-92
2023/11/26 00:50:14;;;;;;;14.33;5.87;;;7.40;86.90;;;;;;5077664;28;20624;-90
2023/11/26 00:52:41;;;;;;;15.93;5.00;;;7.20;86.60;;;;;;5077190;28;20172;-90
2023/11/26 00:55:07;;;;;;;13.63;5.20;;;7.00;88.60;;;;;;5078910;28;20169;-90
2023/11/26 00:57:32;;;;;;;10.60;5.27;;;6.90;91.30;;;;;;5077490;28;20504;-89
2023/11/26 00:59:58;;;;;;;12.77;5.27;;;7.10;93.60;;;;;;5077716;28;20176;-91
2023/11/26 01:02:24;;;;;;;11.23;5.40;;;7.00;93.60;;;;;;5087323;28;20165;-85
2023/11/26 01:04:50;;;;;;;14.47;5.37;;;6.90;94.30;;;;;;5090504;28;20200;-91
2023/11/26 01:07:17;;;;;;;12.50;5.47;;;6.90;95.20;;;;;;5087443;28;20164;-90
2023/11/26 01:09:45;;;;;;;13.10;6.03;;;6.80;95.80;;;;;;5086286;28;20198;-89
2023/11/26 01:12:14;;;;;;;11.97;4.97;;;7.00;97.70;;;;;;5089987;28;20152;-90
2023/11/26 01:14:40;;;;;;;9.17;4.73;;;6.80;98.50;;;;;;5081867;28;20184;-91
2023/11/26 01:17:09;;;;;;;16.63;6.40;;;6.70;99.20;;;;;;5078097;28;20168;-91
2023/11/26 01:19:35;;;;;;;11.63;5.27;;;6.90;99.90;;;;;;5077977;28;20203;-91
2023/11/26 01:22:01;;;;;;;10.00;5.57;;;6.90;99.90;;;;;;5076165;28;20172;-91
2023/11/26 01:24:27;;;;;;;15.83;6.17;;;6.80;99.90;;;;;;5075222;28;20199;-89
2023/11/26 01:26:52;;;;;;;10.23;5.53;;;6.80;99.90;;;;;;5076290;28;20175;-92
2023/11/26 01:29:18;;;;;;;11.90;5.57;;;6.90;99.90;;;;;;5074273;28;20169;-86
2023/11/26 01:31:44;;;;;;;12.33;5.73;;;6.70;99.90;;;;;;5076466;28;20169;-90
2023/11/26 01:34:10;;;;;;;13.27;5.50;;;6.80;99.90;;;;;;5074291;28;20164;-91
2023/11/26 01:36:35;;;;;;;12.50;6.27;;;6.80;99.90;;;;;;5079005;28;20175;-91
2023/11/26 01:39:02;;;;;;;13.50;5.43;;;6.90;99.90;;;;;;5086835;28;20174;-91
2023/11/26 01:41:27;;;;;;;12.77;6.03;;;6.90;99.90;;;;;;5087433;28;20172;-89
2023/11/26 01:43:53;;;;;;;14.97;5.80;;;6.90;99.90;;;;;;5086978;28;20235;-91
2023/11/26 01:46:20;;;;;;;15.43;6.50;;;7.00;99.30;;;;;;5086154;28;20164;-91
2023/11/26 01:48:45;;;;;;;14.03;5.90;;;7.00;98.90;;;;;;5083638;28;20256;-91
2023/11/26 01:51:13;;;;;;;11.50;5.80;;;6.80;97.70;;;;;;5085270;28;20214;-89
2023/11/26 01:53:44;;;;;;;10.43;6.07;;;6.90;98.00;;;;;;5098734;28;20173;-90
2023/11/26 01:56:10;;;;;;;13.43;6.47;;;6.80;98.10;;;;;;5085407;28;20149;-90
2023/11/26 01:58:44;;;;;;;12.60;6.10;;;6.60;98.30;;;;;;5086280;28;20222;-91
2023/11/26 02:01:17;;;;;;;11.27;5.73;;;6.60;99.80;;;;;;5095526;28;20168;-92
2023/11/26 02:03:43;;;;;;;10.20;5.97;;;6.50;99.90;;;;;;5082428;28;20215;-92
2023/11/26 02:06:11;;;;;;;12.80;6.20;;;6.50;99.90;;;;;;5079646;28;20152;-88
2023/11/26 02:08:37;;;;;;;13.57;6.57;;;6.50;99.90;;;;;;5078989;28;20255;-91
2023/11/26 02:11:03;;;;;;;14.53;6.60;;;6.50;99.90;;;;;;5078772;28;20160;-90
2023/11/26 02:13:29;;;;;;;12.63;6.77;;;6.60;99.90;;;;;;5076786;28;20267;-90
2023/11/26 02:15:55;;;;;;;13.70;6.90;;;6.60;99.90;;;;;;5078699;28;20252;-91
2023/11/26 02:18:21;;;;;;;13.63;5.97;;;6.70;99.90;;;;;;5078491;28;20168;-90
2023/11/26 02:20:47;;;;;;;15.23;7.00;;;6.70;99.90;;;;;;5077477;28;20184;-89
2023/11/26 02:23:13;;;;;;;12.30;6.93;;;6.70;99.90;;;;;;5079792;28;20303;-91
2023/11/26 02:25:39;;;;;;;12.00;5.80;;;6.80;99.90;;;;;;5094427;28;20169;-88
2023/11/26 02:28:05;;;;;;;11.50;6.20;;;6.80;99.90;;;;;;5093824;28;20172;-88
2023/11/26 02:30:32;;;;;;;11.80;6.03;;;6.80;99.90;;;;;;5094881;28;20172;-90
2023/11/26 02:32:58;;;;;;;12.53;6.60;;;6.70;99.90;;;;;;5094811;28;20168;-87
2023/11/26 02:35:25;;;;;;;12.10;6.63;;;6.80;99.90;;;;;;5090227;28;20208;-91
2023/11/26 02:37:52;;;;;;;14.87;6.60;;;6.80;99.90;;;;;;5077283;28;20176;-90
2023/11/26 02:40:19;;;;;;;19.37;6.20;;;6.80;99.90;;;;;;5078942;28;20152;-90
2023/11/26 02:42:45;;;;;;;11.97;6.70;;;6.90;99.90;;;;;;5078854;28;20663;-91
2023/11/26 02:45:11;;;;;;;14.60;6.80;;;7.00;99.90;;;;;;5077656;28;20543;-90
2023/11/26 02:47:37;;;;;;;12.87;6.70;;;6.90;99.90;;;;;;5077952;28;20160;-90
2023/11/26 02:50:07;;;;;;;13.83;6.80;;;7.00;99.90;;;;;;5077977;28;20168;-92
2023/11/26 02:52:35;;;;;;;16.53;7.23;;;6.90;99.90;;;;;;5078434;28;20541;-90
2023/11/26 02:55:01;;;;;;;15.33;6.60;;;7.00;99.90;;;;;;5078254;28;20184;-91
2023/11/26 02:57:27;;;;;;;11.50;6.20;;;7.20;99.90;;;;;;5079239;28;20153;-91
2023/11/26 02:59:52;;;;;;;14.60;6.53;;;7.20;99.90;;;;;;5096078;28;20176;-89
2023/11/26 03:02:19;;;;;;;16.87;6.87;;;7.10;99.90;;;;;;5098472;28;20212;-83
2023/11/26 03:04:52;;;;;;;13.57;6.70;;;7.20;99.90;;;;;;5100108;28;20204;-85
2023/11/26 03:07:27;;;;;;;11.03;6.73;;;7.00;99.90;;;;;;5099845;28;20157;-90
2023/11/26 03:15:30;;;;;;;10.73;7.27;;;7.10;99.90;;;;;;5078070;28;20171;-92
2023/11/26 03:17:56;;;;;;;13.80;7.00;;;7.00;99.90;;;;;;5076891;28;20259;-90
2023/11/26 03:20:22;;;;;;;14.57;7.30;;;7.00;99.90;;;;;;5077253;28;20238;-82
2023/11/26 03:22:47;;;;;;;10.73;7.10;;;7.00;99.90;;;;;;5092252;28;20199;-90
2023/11/26 03:25:20;;;;;;;14.13;7.30;;;7.00;99.90;;;;;;5079341;28;20168;-91
2023/11/26 03:27:46;;;;;;;13.80;8.00;;;7.00;99.90;;;;;;5075673;28;20192;-91
2023/11/26 03:30:11;;;;;;;14.63;7.87;;;7.10;99.90;;;;;;5075133;28;20325;-91
2023/11/26 03:32:37;;;;;;;16.43;8.50;;;7.00;99.90;;;;;;5076363;28;20184;-90
2023/11/26 03:35:03;;;;;;;16.03;8.30;;;7.00;99.90;;;;;;5076769;28;20638;-88
2023/11/26 03:37:29;;;;;;;15.73;7.77;;;7.00;99.90;;;;;;5076538;28;20678;-88
2023/11/26 03:39:55;;;;;;;13.27;7.93;;;7.00;99.90;;;;;;5076984;28;20242;-90
2023/11/26 03:42:20;;;;;;;12.07;8.10;;;7.00;99.90;;;;;;5076823;28;20628;-91
2023/11/26 03:44:46;;;;;;;15.50;8.63;;;7.00;99.90;;;;;;5086688;28;20157;-87
2023/11/26 03:47:11;;;;;;;17.07;9.00;;;7.00;99.90;;;;;;5095201;28;20285;-89
2023/11/26 03:49:38;;;;;;;13.10;8.53;;;7.00;99.90;;;;;;5086731;28;20180;-90
2023/11/26 03:52:09;;;;;;;13.70;8.77;;;7.00;99.90;;;;;;5076885;28;20604;-91
2023/11/26 03:54:35;;;;;;;14.27;8.60;;;7.00;99.90;;;;;;5076594;28;20172;-87
2023/11/26 03:57:01;;;;;;;16.10;8.10;;;7.00;99.90;;;;;;5074500;28;20176;-90
2023/11/26 03:59:26;;;;;;;15.30;8.77;;;7.10;99.90;;;;;;5076884;28;20178;-90
2023/11/26 04:01:52;;;;;;;18.30;9.07;;;7.00;99.90;;;;;;5074098;28;20211;-89
2023/11/26 04:04:18;;;;;;;17.30;9.30;;;7.00;99.90;;;;;;5077174;28;20220;-89
2023/11/26 04:06:43;;;;;;;15.80;9.40;;;7.00;99.90;;;;;;5075328;28;20185;-91
2023/11/26 04:09:10;;;;;;;13.23;8.43;;;7.20;99.90;;;;;;5076892;28;20171;-90
2023/11/26 04:11:36;;;;;;;14.17;8.37;;;7.10;99.90;;;;;;5076284;28;20168;-90
2023/11/26 04:14:01;;;;;;;13.03;9.03;;;7.10;99.90;;;;;;5075709;28;20652;-88
2023/11/26 04:16:29;;;;;;;13.90;9.07;;;7.20;99.90;;;;;;5076397;28;20167;-91
2023/11/26 04:18:56;;;;;;;15.87;8.87;;;7.20;99.90;;;;;;5076154;28;20168;-89
2023/11/26 04:21:22;;;;;;;15.70;8.53;;;7.10;99.90;;;;;;5074413;28;20194;-88
2023/11/26 04:23:48;;;;;;;13.30;8.40;;;7.10;99.90;;;;;;5075178;28;20277;-92
2023/11/26 04:26:15;;;;;;;13.30;7.73;;;7.10;99.90;;;;;;5077493;28;20194;-90
2023/11/26 04:28:40;;;;;;;12.80;7.63;;;7.10;99.90;;;;;;5073949;28;20732;-90
2023/11/26 04:31:06;;;;;;;10.83;7.77;;;7.20;99.90;;;;;;5074876;28;20199;-89
2023/11/26 04:33:33;;;;;;;12.07;7.13;;;7.20;99.90;;;;;;5075753;28;20662;-88
2023/11/26 04:35:59;;;;;;;13.93;7.53;;;7.20;99.90;;;;;;5076871;28;20203;-90
2023/11/26 04:38:26;;;;;;;10.40;7.50;;;7.30;99.90;;;;;;5075842;28;20221;-88
2023/11/26 04:40:51;;;;;;;12.90;7.57;;;7.30;99.90;;;;;;5084568;28;20168;-90
2023/11/26 04:43:17;;;;;;;11.23;6.90;;;7.40;99.90;;;;;;5092238;28;20241;-81
2023/11/26 04:45:46;;;;;;;15.17;7.97;;;7.20;99.90;;;;;;5090301;28;20690;-87
2023/11/26 04:48:12;;;;;;;13.43;7.50;;;7.50;99.90;;;;;;5083195;28;20263;-87
2023/11/26 04:50:37;;;;;;;11.43;6.90;;;7.30;99.90;;;;;;5079396;28;20218;-83
2023/11/26 04:53:04;;;;;;;14.83;7.43;;;7.30;99.90;;;;;;5080973;28;20219;-91
2023/11/26 04:55:30;;;;;;;13.77;7.90;;;7.40;99.90;;;;;;5087488;28;20160;-86
2023/11/26 04:57:56;;;;;;;12.70;6.93;;;7.50;99.90;;;;;;5094713;28;20228;-86
2023/11/26 05:00:25;;;;;;;10.37;7.30;;;7.30;99.90;;;;;;5095448;28;20168;-89
2023/11/26 05:02:54;;;;;;;10.57;6.73;;;7.30;99.90;;;;;;5093934;28;20184;-89
2023/11/26 05:05:19;;;;;;;12.13;7.57;;;7.30;99.90;;;;;;5092519;28;20199;-90
2023/11/26 05:07:46;;;;;;;11.50;7.47;;;7.30;99.90;;;;;;5090771;28;20168;-87
2023/11/26 05:10:11;;;;;;;12.60;7.23;;;7.30;99.90;;;;;;5090192;28;20164;-91
2023/11/26 05:12:37;;;;;;;11.27;6.57;;;7.30;99.90;;;;;;5088782;28;20179;-89
2023/11/26 05:15:04;;;;;;;9.67;6.53;;;7.20;99.90;;;;;;5087132;28;20183;-88
2023/11/26 05:17:30;;;;;;;11.87;7.30;;;7.20;99.90;;;;;;5089947;28;20164;-87
2023/11/26 05:19:56;;;;;;;12.47;7.00;;;7.30;99.90;;;;;;5094846;28;20236;-86
2023/11/26 05:22:22;;;;;;;11.57;6.97;;;7.20;99.90;;;;;;5094911;28;20173;-88
2023/11/26 05:24:49;;;;;;;18.17;6.87;;;7.20;99.90;;;;;;5093580;28;20186;-86
2023/11/26 05:27:15;;;;;;;11.13;6.80;;;7.20;99.90;;;;;;5091006;28;20542;-82
2023/11/26 05:29:41;;;;;;;12.50;6.70;;;7.30;99.90;;;;;;5096356;28;20153;-86
2023/11/26 05:32:07;;;;;;;11.67;6.43;;;7.20;99.90;;;;;;5096076;28;20176;-92
2023/11/26 05:34:33;;;;;;;10.13;6.13;;;7.20;99.90;;;;;;5086409;28;20172;-89
2023/11/26 05:37:00;;;;;;;12.77;6.40;;;7.30;99.90;;;;;;5081190;28;20184;-87
2023/11/26 05:39:28;;;;;;;9.10;5.40;;;7.20;99.90;;;;;;5095728;28;20149;-86
2023/11/26 05:41:54;;;;;;;9.53;5.20;;;7.20;99.90;;;;;;5080509;28;20195;-89
2023/11/26 05:44:26;;;;;;;11.43;5.23;;;7.10;99.90;;;;;;5075411;28;20204;-88
2023/11/26 05:46:53;;;;;;;9.17;5.00;;;7.10;99.90;;;;;;5077962;28;20160;-92
2023/11/26 05:49:19;;;;;;;12.03;5.17;;;7.30;99.90;;;;;;5075950;28;20187;-89
2023/11/26 05:51:44;;;;;;;7.93;5.33;;;7.40;99.90;;;;;;5073050;28;20180;-89
2023/11/26 05:54:10;;;;;;;9.70;5.10;;;7.40;99.90;;;;;;5086898;28;20182;-89
2023/11/26 05:56:36;;;;;;;10.23;5.70;;;7.40;99.90;;;;;;5085379;28;20179;-90
2023/11/26 05:59:02;;;;;;;10.17;5.40;;;7.60;99.90;;;;;;5075422;28;20211;-90
2023/11/26 06:01:28;;;;;;;15.27;6.30;;;7.50;99.90;;;;;;5074255;28;20172;-90
2023/11/26 06:03:54;;;;;;;14.13;6.30;;;7.70;99.90;;;;;;5090753;28;20224;-91
2023/11/26 06:06:23;;;;;;;10.77;5.90;;;7.70;99.90;;;;;;5078252;28;20203;-90
2023/11/26 06:08:48;;;;;;;10.83;5.87;;;7.90;99.90;;;;;;5076340;28;20157;-91
2023/11/26 06:11:15;;;;;;;8.17;5.47;;;7.80;99.90;;;;;;5073144;28;20655;-90
2023/11/26 06:13:41;;;;;;;11.73;6.53;;;7.90;99.90;;;;;;5072371;28;20621;-91
2023/11/26 06:16:07;;;;;;;7.97;5.43;;;7.90;99.90;;;;;;5073978;28;20248;-91
2023/11/26 06:18:32;;;;;;;13.80;5.93;;;7.80;99.90;;;;;;5082021;28;20161;-88
2023/11/26 06:20:58;;;;;;;11.30;5.80;;;7.70;99.90;;;;;;5093743;28;20175;-90
2023/11/26 06:23:25;;;;;;;9.30;5.80;;;7.80;99.90;;;;;;5077984;28;20691;-91
2023/11/26 06:25:50;;;;;;;13.80;6.17;;;7.60;99.90;;;;;;5077368;28;20240;-91
2023/11/26 06:28:17;;;;;;;14.07;5.97;;;7.50;99.90;;;;;;5076968;28;20273;-91
2023/11/26 06:30:42;;;;;;;11.87;6.50;;;7.70;99.90;;;;;;5078114;28;20164;-89
2023/11/26 06:33:08;;;;;;;9.60;6.20;;;7.70;99.90;;;;;;5076577;28;20537;-90
2023/11/26 06:35:35;;;;;;;12.30;6.80;;;7.80;99.90;;;;;;5076651;28;20191;-91
2023/11/26 06:38:02;;;;;;;14.17;6.97;;;7.80;99.90;;;;;;5078029;28;20185;-91
2023/11/26 06:40:27;;;;;;;16.93;8.23;;;7.80;99.90;;;;;;5077941;28;20170;-90
2023/11/26 06:42:53;;;;;;;13.40;8.27;;;7.80;99.90;;;;;;5077952;28;20184;-90
2023/11/26 06:45:19;;;;;;;17.27;9.10;;;7.40;99.90;;;;;;5077773;28;20632;-91
2023/11/26 06:47:44;;;;;;;12.27;8.63;;;7.40;99.90;;;;;;5075687;28;20176;-89
2023/11/26 06:50:10;;;;;;;16.10;9.87;;;7.50;99.90;;;;;;5088557;28;20168;-87
2023/11/26 06:52:35;;;;;;;16.53;9.63;;;7.60;99.90;;;;;;5097609;28;20175;-87
2023/11/26 06:55:05;;;;;;;16.90;10.80;;;7.70;99.90;;;;;;5092428;28;20176;-89
2023/11/26 06:57:35;;;;;;;14.80;10.50;;;7.60;99.90;;;;;;5082153;28;20161;-91
2023/11/26 07:00:00;;;;;;;13.77;10.03;;;7.50;99.90;;;;;;5078376;28;20155;-91
2023/11/26 07:02:27;;;;;;;19.97;11.90;;;7.40;99.90;;;;;;5076527;28;20172;-89
2023/11/26 07:04:52;;;;;;;21.03;12.37;;;7.30;99.90;;;;;;5078696;28;20248;-92
2023/11/26 07:07:20;;;;;;;19.80;12.37;;;7.30;99.90;;;;;;5084058;28;20216;-92
2023/11/26 07:09:46;;;;;;;15.70;11.40;;;7.30;99.90;;;;;;5081464;28;20168;-90
2023/11/26 07:12:11;;;;;;;21.37;12.70;;;7.50;99.90;;;;;;5083580;28;20169;-90
2023/11/26 07:14:38;;;;;;;21.40;13.80;;;7.50;99.90;;;;;;5078012;28;20288;-90
2023/11/26 07:17:05;;;;;;;19.17;13.33;;;7.40;99.90;;;;;;5086425;28;20323;-90
2023/11/26 07:19:31;;;;;;;18.87;13.17;;;7.40;99.90;;;;;;5089103;28;20184;-92
2023/11/26 07:21:57;;;;;;;17.30;11.90;;;7.40;99.90;;;;;;5089324;28;20183;-87
2023/11/26 07:24:23;;;;;;;17.97;11.50;;;7.30;99.90;;;;;;5089803;28;20224;-91
2023/11/26 07:26:52;;;;;;;20.57;11.90;;;7.40;99.90;;;;;;5087501;28;20200;-90
2023/11/26 07:29:19;;;;;;;21.97;11.97;;;7.40;99.90;;;;;;5085927;28;20182;-92
2023/11/26 07:31:47;;;;;;;22.00;12.70;;;7.30;99.90;;;;;;5093722;28;20172;-90
2023/11/26 07:34:13;;;;;;;18.17;12.00;;;7.40;99.90;;;;;;5088179;28;20180;-90
2023/11/26 07:36:40;;;;;;;19.00;12.63;;;7.30;99.90;;;;;;5087257;28;20168;-90
2023/11/26 07:39:06;;;;;;;19.57;12.37;;;7.40;99.90;;;;;;5090635;28;20165;-86
2023/11/26 07:41:56;;;;;;;19.37;11.57;;;7.20;99.90;;;;;;5088692;28;20217;-84
2023/11/26 07:44:25;;;;;;;18.07;11.40;;;7.30;99.90;;;;;;5079622;28;20261;-88
2023/11/26 07:46:54;;;;;;;16.60;11.90;;;7.30;99.90;;;;;;5078841;28;20215;-89
2023/11/26 07:49:20;;;;;;;20.03;11.20;;;7.50;99.90;;;;;;5079743;28;20535;-90
2023/11/26 07:51:47;;;;;;;16.40;11.30;;;7.50;99.90;;;;;;5076712;28;20200;-92
2023/11/26 07:54:15;;;;;;;20.33;12.00;;;7.50;99.90;;;;;;5078733;28;20176;-88
2023/11/26 07:56:41;;;;;;;18.57;12.00;;;7.40;99.90;;;;;;5078692;28;20651;-91
2023/11/26 07:59:08;;;;;;;23.27;12.97;;;7.50;99.90;;;;;;5077747;28;20176;-91
2023/11/26 08:01:34;;;;;;;20.57;11.23;;;7.40;99.90;;;;;;5076415;28;20164;-90
2023/11/26 08:04:03;;;;;;;16.73;11.30;;;7.40;99.90;;;;;;5076197;28;20652;-84
2023/11/26 08:06:29;;;;;;;14.70;11.10;;;7.40;99.90;;;;;;5075607;28;20244;-90
2023/11/26 08:08:56;;;;;;;22.93;10.73;;;7.40;99.90;;;;;;5076141;28;20668;-90
2023/11/26 08:11:22;;;;;;;18.30;10.07;;;7.40;99.90;;;;;;5075417;28;20531;-90
2023/11/26 08:13:48;;;;;;;14.87;9.93;;;7.30;99.90;;;;;;5076873;28;20263;-87
2023/11/26 08:16:17;;;;;;;19.57;10.67;;;7.30;99.90;;;;;;5080075;28;20172;-92
2023/11/26 08:18:46;;;;;;;13.33;9.87;;;7.30;99.90;;;;;;5075991;28;20251;-91
2023/11/26 08:21:11;;;;;;;17.10;10.53;;;7.20;99.90;;;;;;5078044;28;20200;-92
2023/11/26 08:23:43;;;;;;;16.30;10.83;;;7.20;99.90;;;;;;5075806;28;20295;-85
2023/11/26 08:26:10;;;;;;;20.37;11.53;;;7.20;99.90;;;;;;5077366;28;20165;-90
2023/11/26 08:28:37;;;;;;;17.60;10.93;;;7.20;99.90;;;;;;5077481;28;20210;-90
2023/11/26 08:31:03;;;;;;;18.37;11.80;;;7.30;99.90;;;;;;5075853;28;20164;-92
2023/11/26 08:33:36;;;;;;;20.07;11.07;;;7.20;99.90;;;;;;5075790;28;20180;-85
2023/11/26 08:36:04;;;;;;;15.83;10.97;;;7.10;99.90;;;;;;5074557;28;20195;-87
2023/11/26 08:38:31;;;;;;;17.00;11.17;;;7.00;99.90;;;;;;5073795;28;20179;-87
2023/11/26 08:41:02;;;;;;;17.93;11.73;;;7.00;99.90;;;;;;5087809;28;20194;-83
2023/11/26 08:43:28;;;;;;;24.70;12.63;;;7.10;99.90;;;;;;5088824;28;20702;-84
2023/11/26 08:46:03;;;;;;;18.53;12.10;;;6.90;99.90;;;;;;5078814;28;20176;-89
2023/11/26 08:48:36;;;;;;;22.00;13.40;;;7.00;99.90;;;;;;5080061;28;20174;-88
2023/11/26 08:51:02;;;;;;;19.93;13.80;;;7.00;99.90;;;;;;5086176;28;20180;-88
2023/11/26 08:53:29;;;;;;;20.37;12.07;;;7.00;99.90;;;;;;5084069;28;20267;-93
2023/11/26 08:55:56;;;;;;;21.03;12.77;;;7.00;99.90;;;;;;5069083;28;20183;-88
2023/11/26 08:58:22;;;;;;;20.33;12.30;;;6.90;99.90;;;;;;5054109;28;20177;-89
2023/11/26 09:00:48;;;;;;;20.37;12.57;;;6.90;99.90;;;;;;5055252;28;20201;-94
2023/11/26 09:03:13;;;;;;;21.20;13.87;;;6.90;99.90;;;;;;5057052;28;20363;-90
2023/11/26 09:05:40;;;;;;;23.53;14.50;;;7.00;99.90;;;;;;5057994;28;20203;-89
2023/11/26 09:08:06;;;;;;;24.43;14.73;;;6.90;99.90;;;;;;5061558;28;20169;-85
2023/11/26 09:10:32;;;;;;;25.03;15.90;;;6.90;99.90;;;;;;5063842;28;20212;-87
2023/11/26 09:12:57;;;;;;;21.60;14.97;;;6.90;99.90;;;;;;5056427;28;20264;-82
2023/11/26 09:15:26;;;;;;;26.50;15.33;;;6.90;99.90;;;;;;5054318;28;20173;-83
2023/11/26 09:17:52;;;;;;;30.30;15.37;;;6.90;99.90;;;;;;5054487;28;20169;-85
2023/11/26 09:20:18;;;;;;;22.70;14.70;;;6.80;99.90;;;;;;5052099;28;20738;-85
2023/11/26 09:22:44;;;;;;;26.83;14.90;;;6.90;99.90;;;;;;5060881;28;20249;-86
2023/11/26 09:25:14;;;;;;;20.73;13.93;;;6.80;99.90;;;;;;5055294;28;20220;-85
2023/11/26 09:27:40;;;;;;;21.33;14.27;;;6.90;99.90;;;;;;5073829;28;20263;-85
2023/11/26 09:30:10;;;;;;;23.20;14.47;;;7.00;99.90;;;;;;5072941;28;20621;-85
2023/11/26 09:32:37;;;;;;;32.73;15.40;;;7.00;99.90;;;;;;5073527;28;20168;-87
2023/11/26 09:35:03;;;;;;;27.07;14.90;;;7.00;99.90;;;;;;5071983;28;20609;-89
2023/11/26 09:37:29;;;;;;;25.03;14.53;;;7.20;99.90;;;;;;5071532;28;20183;-86
2023/11/26 09:39:55;;;;;;;19.17;13.53;;;7.20;99.90;;;;;;5071901;28;20186;-86
2023/11/26 09:42:22;;;;;;;29.17;14.63;;;7.20;99.90;;;;;;5071638;28;20263;-86
2023/11/26 09:44:48;;;;;;;27.13;15.03;;;7.10;99.90;;;;;;5072358;28;20207;-88
2023/11/26 09:47:15;;;;;;;21.40;13.67;;;7.10;99.90;;;;;;5075418;28;20218;-83
2023/11/26 09:49:44;;;;;;;21.93;13.47;;;7.20;99.90;;;;;;5082125;28;20183;-84
2023/11/26 09:52:10;;;;;;;22.63;13.03;;;7.20;99.90;;;;;;5079585;28;20172;-82
2023/11/26 09:54:35;;;;;;;23.07;13.43;;;7.30;99.90;;;;;;5071383;28;20263;-87
2023/11/26 09:57:03;;;;;;;24.07;14.40;;;7.40;99.90;;;;;;5079356;28;20191;-88
2023/11/26 09:59:33;;;;;;;21.57;12.27;;;7.50;99.90;;;;;;5083369;28;20167;-87
2023/11/26 10:02:02;;;;;;;20.13;11.87;;;7.50;99.90;;;;;;5080073;28;20697;-88
2023/11/26 10:04:48;;;;;;;24.10;12.33;;;7.40;99.90;;;;;;5077722;28;20215;-88
2023/11/26 10:07:15;;;;;;;17.87;11.17;;;7.50;99.90;;;;;;5090509;28;20246;-89
2023/11/26 10:10:12;;;;;;;22.13;12.13;;;7.50;99.90;;;;;;5079081;28;20255;-88
2023/11/26 10:12:58;;;;;;;23.63;12.37;;;7.50;99.90;;;;;;5078465;28;20222;-89
2023/11/26 10:15:26;;;;;;;18.93;11.17;;;7.60;99.90;;;;;;5076686;28;20191;-87
2023/11/26 10:18:07;;;;;;;20.23;11.40;;;7.70;99.90;;;;;;5078696;28;20179;-88
2023/11/26 10:20:43;;;;;;;18.97;10.07;;;7.70;99.90;;;;;;5079112;28;20265;-85
2023/11/26 10:23:15;;;;;;;16.00;10.10;;;7.70;99.90;;;;;;5089257;28;20223;-90
2023/11/26 10:25:42;;;;;;;18.83;11.43;;;7.70;95.90;;;;;;5095321;28;20203;-89
2023/11/26 10:28:17;;;;;;;21.67;10.87;;;7.70;95.90;;;;;;5094118;28;20168;-87
2023/11/26 10:30:45;;;;;;;20.07;10.90;;;7.70;97.50;;;;;;5111008;28;20174;-87
2023/11/26 10:33:12;;;;;;;18.47;10.90;;;7.70;95.50;;;;;;5101587;28;20825;-88
2023/11/26 10:35:50;;;;;;;17.87;9.90;;;7.80;94.30;;;;;;5102158;28;20176;-92
2023/11/26 10:38:28;;;;;;;17.07;10.13;;;7.70;93.50;;;;;;5106307;28;20170;-92
2023/11/26 10:40:56;;;;;;;17.67;9.97;;;7.70;93.30;;;;;;5081825;28;20179;-90
2023/11/26 10:43:25;;;;;;;20.10;10.97;;;7.80;92.40;;;;;;5093396;28;20196;-88
2023/11/26 10:45:51;;;;;;;18.77;11.30;;;7.90;93.10;;;;;;5074325;28;20659;-88
2023/11/26 10:48:18;;;;;;;18.93;10.67;;;7.90;90.90;;;;;;5078214;28;20251;-89
2023/11/26 10:50:59;;;;;;;18.67;11.30;;;7.70;91.10;;;;;;5078744;28;20373;-87
2023/11/26 10:53:49;;;;;;;19.80;10.53;;;7.70;93.40;;;;;;5085291;28;20192;-90
2023/11/26 10:56:18;;;;;;;20.63;10.70;;;7.80;92.20;;;;;;5077767;28;20249;-89
2023/11/26 10:58:50;;;;;;;20.37;11.50;;;7.70;92.60;;;;;;5075930;28;20168;-89
2023/11/26 11:01:17;;;;;;;20.10;11.03;;;7.90;94.10;;;;;;5075415;28;20168;-84
2023/11/26 11:03:42;;;;;;;20.67;11.50;;;7.90;92.40;;;;;;5075382;28;20357;-90
2023/11/26 11:06:12;;;;;;;18.47;10.50;;;8.10;91.70;;;;;;5074681;28;20679;-87
2023/11/26 11:08:41;;;;;;;20.77;11.10;;;8.00;87.60;;;;;;5074028;28;20183;-86
2023/11/26 11:11:34;;;;;;;22.50;11.93;;;8.10;88.60;;;;;;5074526;28;20192;-89
2023/11/26 11:14:01;;;;;;;16.13;9.57;;;8.10;88.90;;;;;;5075035;28;20285;-88
2023/11/26 11:16:27;;;;;;;16.13;9.20;;;8.00;79.60;;;;;;5074057;28;20173;-83
2023/11/26 11:18:53;;;;;;;17.00;9.80;;;8.00;76.80;;;;;;5076775;28;20179;-85
2023/11/26 11:21:19;;;;;;;24.57;9.77;;;8.00;72.90;;;;;;5088650;28;20256;-87
2023/11/26 11:23:50;;;;;;;13.73;9.23;;;8.00;72.70;;;;;;5080003;28;20216;-86
2023/11/26 11:26:19;;;;;;;22.00;9.47;;;8.10;72.60;;;;;;5077621;28;20644;-87
2023/11/26 11:28:53;;;;;;;18.70;9.50;;;8.20;68.50;;;;;;5075864;28;20187;-86
2023/11/26 11:31:48;;;;;;;18.63;9.83;;;8.20;59.30;;;;;;5086184;28;20201;-83
2023/11/26 11:34:14;;;;;;;20.57;10.27;;;8.10;62.00;;;;;;5072961;28;20184;-90
2023/11/26 11:36:49;;;;;;;20.33;10.37;;;8.20;64.10;;;;;;5075193;28;20172;-90
2023/11/26 11:39:17;;;;;;;17.17;9.87;;;8.10;72.10;;;;;;5074597;28;20194;-87
2023/11/26 11:41:59;;;;;;;18.40;9.53;;;8.00;78.00;;;;;;5075566;28;20160;-90
2023/11/26 11:44:34;;;;;;;16.50;9.90;;;8.10;78.90;;;;;;5084070;28;20200;-91
2023/11/26 11:47:33;;;;;;;17.70;9.97;;;8.20;77.00;;;;;;5091242;28;20175;-86
2023/11/26 11:50:05;;;;;;;17.67;9.77;;;8.30;75.70;;;;;;5098341;28;20648;-90
2023/11/26 11:52:31;;;;;;;18.20;10.63;;;8.20;71.20;;;;;;5103616;28;20160;-89
2023/11/26 11:55:45;;;;;;;18.60;9.63;;;8.10;77.00;;;;;;5104345;28;20181;-89
2023/11/26 11:58:13;;;;;;;17.43;10.23;;;8.20;75.50;;;;;;5099770;28;20195;-86
2023/11/26 12:00:43;;;;;;;16.10;9.87;;;8.30;65.90;;;;;;5101390;28;20190;-84
2023/11/26 12:03:15;;;;;;;15.97;9.23;;;8.30;60.90;;;;;;5101530;28;20223;-83
2023/11/26 12:05:42;;;;;;;19.00;10.60;;;8.30;59.10;;;;;;5100804;28;20179;-89
2023/11/26 12:08:13;;;;;;;21.23;10.20;;;8.30;57.60;;;;;;5094567;28;20198;-88
2023/11/26 12:10:42;;;;;;;19.50;9.17;;;8.30;58.90;;;;;;5095332;28;20571;-86
2023/11/26 12:13:10;;;;;;;18.37;8.47;;;8.30;61.90;;;;;;5097976;28;20254;-90
2023/11/26 12:15:39;;;;;;;13.47;8.77;;;8.30;59.00;;;;;;5099376;28;20163;-91
2023/11/26 12:18:05;;;;;;;15.53;8.53;;;8.30;48.70;;;;;;5098572;28;20237;-91
2023/11/26 12:20:30;;;;;;;18.23;9.33;;;8.30;47.60;;;;;;5084567;28;20199;-95
2023/11/26 12:22:56;;;;;;;15.83;9.20;;;8.30;48.60;;;;;;5094673;28;20195;-87
2023/11/26 12:25:23;;;;;;;19.50;8.70;;;8.40;53.40;;;;;;5096714;28;20180;-90
2023/11/26 12:28:05;;;;;;;14.80;8.13;;;8.40;49.70;;;;;;5100138;28;20163;-89
2023/11/26 12:30:32;;;;;;;21.03;9.43;;;8.30;45.00;;;;;;5100984;28;20193;-89
2023/11/26 12:32:58;;;;;;;19.00;9.40;;;8.30;50.60;;;;;;5106426;28;20178;-86
2023/11/26 12:35:27;;;;;;;16.70;9.17;;;8.40;49.70;;;;;;5106480;28;20281;-85
2023/11/26 12:37:54;;;;;;;16.77;8.80;;;8.40;49.10;;;;;;5096895;28;20207;-88
2023/11/26 12:40:22;;;;;;;20.33;9.40;;;8.30;48.40;;;;;;5101147;28;20152;-91
2023/11/26 12:42:49;;;;;;;16.47;8.50;;;8.30;49.00;;;;;;5098152;28;20175;-92
2023/11/26 12:45:17;;;;;;;20.60;8.23;;;8.20;48.70;;;;;;5093169;28;20184;-91
2023/11/26 12:47:56;;;;;;;18.97;10.63;;;8.20;52.00;;;;;;5085550;28;20186;-94
2023/11/26 12:50:22;;;;;;;20.37;9.10;;;8.30;50.00;;;;;;5079748;28;20171;-90
2023/11/26 12:52:50;;;;;;;17.23;9.10;;;8.20;56.30;;;;;;5083205;28;20195;-90